Time;durP1;ratioP1;P1;durP2;ratioP2;P2;SDS_P1;SDS_P2;PMS_P1;PMS_P2;Temp;Humidity;BMP_temperature;BMP_pressure;BME280_temperature;BME280_humidity;BME280_pressure;Samples;Min_cycle;Max_cycle;Signal;HPM_P1;HPM_P2
2023/07/04 00:01:49;;;;;;;7.70;1.75;;;13.10;99.90;;;;;;5056477;28;20097;-72
2023/07/04 00:04:21;;;;;;;4.47;1.73;;;13.10;99.90;;;;;;5056615;28;20055;-73
2023/07/04 00:06:47;;;;;;;4.28;1.70;;;13.10;99.90;;;;;;5073958;28;20047;-73
2023/07/04 00:09:18;;;;;;;5.25;1.77;;;13.00;99.90;;;;;;5074714;28;20056;-73
2023/07/04 00:11:44;;;;;;;5.43;1.38;;;13.10;99.90;;;;;;5056506;28;20041;-73
2023/07/04 00:14:13;;;;;;;7.30;1.70;;;13.00;99.90;;;;;;5074298;28;20041;-73
2023/07/04 00:16:38;;;;;;;5.25;1.60;;;13.00;99.90;;;;;;5074558;28;20036;-73
2023/07/04 00:19:06;;;;;;;7.00;1.95;;;12.90;99.90;;;;;;5074008;28;20041;-73
2023/07/04 00:21:33;;;;;;;5.57;1.58;;;13.00;99.90;;;;;;5056609;28;20076;-72
2023/07/04 00:24:01;;;;;;;8.13;1.85;;;12.90;99.90;;;;;;5057660;28;20064;-73
2023/07/04 00:26:29;;;;;;;5.43;1.65;;;12.80;99.90;;;;;;5057428;28;20044;-73
2023/07/04 00:28:58;;;;;;;6.50;1.50;;;12.90;99.90;;;;;;5055353;28;20492;-72
2023/07/04 00:31:24;;;;;;;5.68;1.58;;;12.80;99.90;;;;;;5074802;28;20162;-72
2023/07/04 00:33:51;;;;;;;5.93;1.73;;;12.90;99.90;;;;;;5056471;28;20131;-73
2023/07/04 00:36:18;;;;;;;8.43;1.90;;;12.80;99.90;;;;;;5074835;28;20135;-73
2023/07/04 00:38:55;;;;;;;6.85;1.90;;;12.80;99.90;;;;;;5073378;28;20041;-73
2023/07/04 00:41:23;;;;;;;5.93;1.83;;;12.80;99.90;;;;;;5056294;28;20081;-73
2023/07/04 00:44:13;;;;;;;5.80;1.70;;;12.80;99.90;;;;;;5074172;28;20032;-73
2023/07/04 00:46:42;;;;;;;5.38;1.60;;;12.90;99.90;;;;;;5074808;28;20052;-73
2023/07/04 00:49:17;;;;;;;6.75;1.70;;;12.80;99.90;;;;;;5073575;28;20433;-73
2023/07/04 00:51:47;;;;;;;4.50;1.65;;;12.90;99.90;;;;;;5074420;28;20040;-73
2023/07/04 00:54:17;;;;;;;6.90;1.92;;;13.00;99.90;;;;;;5056697;28;20527;-73
2023/07/04 00:56:43;;;;;;;5.10;1.60;;;13.00;99.90;;;;;;5055385;28;20048;-73
2023/07/04 00:59:09;;;;;;;4.25;1.67;;;13.10;99.90;;;;;;5056015;28;20041;-72
2023/07/04 01:01:37;;;;;;;6.38;1.83;;;13.20;99.90;;;;;;5055898;28;20560;-72
2023/07/04 01:04:04;;;;;;;6.03;1.55;;;13.30;99.90;;;;;;5073682;28;20131;-72
2023/07/04 01:06:55;;;;;;;7.28;2.08;;;13.20;99.90;;;;;;5056676;28;20044;-72
2023/07/04 01:09:25;;;;;;;6.38;2.00;;;13.20;99.90;;;;;;5056325;28;20048;-72
2023/07/04 01:11:53;;;;;;;6.25;1.70;;;13.30;99.90;;;;;;5056312;28;20050;-72
2023/07/04 01:14:21;;;;;;;4.15;1.70;;;13.30;99.90;;;;;;5052531;28;20642;-72
2023/07/04 01:16:47;;;;;;;4.45;1.73;;;13.30;99.90;;;;;;5070682;28;20480;-73
2023/07/04 01:19:19;;;;;;;5.47;1.50;;;13.30;99.90;;;;;;5072858;28;20094;-73
2023/07/04 01:21:55;;;;;;;6.75;1.70;;;13.20;99.90;;;;;;5073553;28;20053;-73
2023/07/04 01:24:36;;;;;;;7.22;1.67;;;13.30;99.90;;;;;;5073537;28;20044;-73
2023/07/04 01:27:06;;;;;;;4.35;1.70;;;13.30;99.90;;;;;;5072572;28;20060;-73
2023/07/04 01:29:36;;;;;;;6.32;1.83;;;13.30;99.90;;;;;;5055904;28;20056;-73
2023/07/04 01:32:11;;;;;;;5.05;1.23;;;13.30;99.90;;;;;;5055336;28;20048;-73
2023/07/04 01:34:41;;;;;;;5.07;1.40;;;13.80;99.90;;;;;;5047281;28;20068;-73
2023/07/04 01:37:07;;;;;;;7.22;1.92;;;13.20;99.90;;;;;;5052572;28;20489;-73
2023/07/04 01:39:36;;;;;;;6.30;1.20;;;13.20;99.90;;;;;;5034784;28;20051;-73
2023/07/04 01:42:05;;;;;;;5.38;1.20;;;13.20;99.90;;;;;;5053291;28;20043;-72
2023/07/04 01:44:31;;;;;;;4.00;1.60;;;13.10;99.90;;;;;;5062724;28;20057;-73
2023/07/04 01:46:57;;;;;;;4.93;1.45;;;13.10;99.90;;;;;;5054162;28;20098;-73
2023/07/04 01:49:23;;;;;;;5.32;1.10;;;13.20;99.90;;;;;;5035622;28;20040;-73
2023/07/04 01:51:49;;;;;;;7.82;1.30;;;13.20;99.90;;;;;;5035388;28;20057;-73
2023/07/04 01:54:18;;;;;;;4.22;1.15;;;13.30;99.90;;;;;;5036434;28;20528;-73
2023/07/04 01:56:52;;;;;;;3.95;1.30;;;13.30;99.90;;;;;;5054498;28;20036;-73
2023/07/04 01:59:19;;;;;;;5.47;1.30;;;13.30;99.90;;;;;;5052421;28;20137;-73
2023/07/04 02:01:45;;;;;;;7.63;1.30;;;13.30;99.90;;;;;;5036217;28;20413;-73
2023/07/04 02:04:11;;;;;;;4.80;1.30;;;13.30;99.90;;;;;;5034751;28;20053;-73
2023/07/04 02:06:37;;;;;;;5.32;1.40;;;13.20;99.90;;;;;;5034270;28;20045;-73
2023/07/04 02:09:03;;;;;;;5.45;1.20;;;13.20;99.90;;;;;;5035298;28;20040;-73
2023/07/04 02:11:28;;;;;;;;;;;13.20;99.90;;;;;;5053764;28;20067;-73
2023/07/04 02:13:55;;;;;;;3.78;1.10;;;13.20;99.90;;;;;;5034771;28;20376;-72
2023/07/04 02:16:20;;;;;;;6.18;1.55;;;13.10;99.90;;;;;;5035501;28;20123;-73
2023/07/04 02:18:46;;;;;;;5.75;1.60;;;13.10;99.90;;;;;;5035601;28;20128;-72
2023/07/04 02:21:12;;;;;;;4.57;1.17;;;13.10;99.90;;;;;;5035178;28;20123;-72
2023/07/04 02:23:37;;;;;;;5.40;1.35;;;13.00;99.90;;;;;;5035307;28;20048;-72
2023/07/04 02:26:03;;;;;;;8.45;2.08;;;13.00;99.90;;;;;;5035584;28;20509;-72
2023/07/04 02:28:29;;;;;;;6.80;1.50;;;13.00;99.90;;;;;;5034899;28;20045;-72
2023/07/04 02:30:56;;;;;;;5.88;1.50;;;13.10;99.90;;;;;;5053178;28;20393;-72
2023/07/04 02:33:22;;;;;;;7.00;1.48;;;13.10;99.90;;;;;;5034610;28;20052;-72
2023/07/04 02:35:54;;;;;;;6.10;1.65;;;13.10;99.90;;;;;;5034492;28;20057;-72
2023/07/04 02:38:20;;;;;;;3.90;1.20;;;13.10;99.90;;;;;;5035306;28;20071;-72
2023/07/04 02:40:47;;;;;;;8.52;1.60;;;13.20;99.90;;;;;;5034646;28;20481;-72
2023/07/04 02:43:17;;;;;;;4.03;1.35;;;13.20;99.90;;;;;;5053600;28;20399;-72
2023/07/04 02:45:43;;;;;;;8.10;1.80;;;13.40;99.90;;;;;;5035411;28;20036;-73
2023/07/04 02:48:10;;;;;;;8.57;1.63;;;13.50;99.90;;;;;;5035159;28;20049;-72
2023/07/04 02:50:36;;;;;;;7.43;2.15;;;13.60;99.90;;;;;;5052874;28;20037;-72
2023/07/04 02:53:02;;;;;;;8.25;1.70;;;13.50;99.90;;;;;;5036956;28;20048;-72
2023/07/04 02:55:30;;;;;;;5.90;1.50;;;13.50;99.90;;;;;;5038560;28;20124;-72
2023/07/04 02:57:56;;;;;;;6.35;1.70;;;13.50;99.90;;;;;;5038999;28;20455;-73
2023/07/04 03:00:22;;;;;;;4.53;1.20;;;13.40;99.90;;;;;;5039186;28;20045;-72
2023/07/04 03:02:48;;;;;;;3.63;1.15;;;13.20;99.90;;;;;;5055342;28;20068;-72
2023/07/04 03:05:14;;;;;;;3.97;1.10;;;13.10;99.90;;;;;;5038836;28;20119;-72
2023/07/04 03:07:39;;;;;;;3.90;1.20;;;12.90;99.90;;;;;;5038942;28;20055;-72
2023/07/04 03:10:06;;;;;;;4.20;1.20;;;12.80;99.90;;;;;;5038201;28;20075;-72
2023/07/04 03:12:31;;;;;;;3.35;0.95;;;12.70;99.90;;;;;;5056955;28;20388;-72
2023/07/04 03:14:57;;;;;;;3.65;1.15;;;12.50;99.90;;;;;;5038720;28;20048;-72
2023/07/04 03:17:23;;;;;;;3.35;1.02;;;12.40;99.90;;;;;;5055983;28;20116;-72
2023/07/04 03:19:48;;;;;;;4.97;1.08;;;12.30;99.90;;;;;;5038249;28;20045;-72
2023/07/04 03:22:14;;;;;;;;;;;12.30;99.90;;;;;;5039215;28;20045;-73
2023/07/04 03:24:40;;;;;;;5.10;1.10;;;12.20;99.90;;;;;;5055859;28;19932;-72
2023/07/04 03:27:05;;;;;;;3.03;1.13;;;12.10;99.90;;;;;;5056557;28;20045;-72
2023/07/04 03:29:31;;;;;;;4.38;1.05;;;12.10;99.90;;;;;;5056649;28;20115;-72
2023/07/04 03:31:57;;;;;;;;;;;12.10;99.90;;;;;;5056284;28;20445;-73
2023/07/04 03:34:22;;;;;;;4.35;1.10;;;12.00;99.90;;;;;;5038369;28;19920;-73
2023/07/04 03:36:48;;;;;;;3.75;1.50;;;12.00;99.90;;;;;;5055431;28;20133;-72
2023/07/04 03:39:14;;;;;;;5.20;1.45;;;12.00;99.90;;;;;;5038658;28;20056;-73
2023/07/04 03:41:43;;;;;;;;;;;12.00;99.90;;;;;;5038365;28;20045;-72
2023/07/04 03:44:08;;;;;;;4.03;1.10;;;12.00;99.90;;;;;;5055341;28;19921;-72
2023/07/04 03:46:34;;;;;;;;;;;12.00;99.90;;;;;;5038639;28;20052;-73
2023/07/04 03:49:03;;;;;;;5.28;1.10;;;12.00;99.90;;;;;;5038197;28;19925;-72
2023/07/04 03:51:29;;;;;;;8.10;1.92;;;12.10;99.90;;;;;;5055787;28;20041;-72
2023/07/04 03:53:54;;;;;;;;;;;12.10;99.90;;;;;;5038291;28;20045;-72
2023/07/04 03:56:20;;;;;;;7.80;1.50;;;12.10;99.90;;;;;;5038238;28;20373;-72
2023/07/04 03:58:46;;;;;;;4.60;1.50;;;12.10;99.90;;;;;;5036816;28;20579;-72
2023/07/04 04:01:11;;;;;;;4.85;1.15;;;12.10;99.90;;;;;;5055092;28;20493;-73
2023/07/04 04:03:43;;;;;;;;;;;12.10;99.90;;;;;;5053006;28;20045;-71
2023/07/04 04:06:09;;;;;;;5.30;1.27;;;12.10;99.90;;;;;;5054360;28;19920;-72
2023/07/04 04:08:35;;;;;;;;;;;12.10;99.90;;;;;;5038516;28;20473;-73
2023/07/04 04:11:22;;;;;;;3.85;1.17;;;12.10;99.90;;;;;;5055372;28;19978;-72
2023/07/04 04:14:07;;;;;;;3.65;1.20;;;12.10;99.90;;;;;;5054000;28;20456;-72
2023/07/04 04:16:33;;;;;;;4.13;1.40;;;12.20;99.90;;;;;;5036320;28;20111;-73
2023/07/04 04:18:59;;;;;;;;;;;12.20;99.90;;;;;;5036555;28;20052;-71
2023/07/04 04:21:25;;;;;;;4.68;1.13;;;12.30;99.90;;;;;;5035826;28;20412;-72
2023/07/04 04:23:54;;;;;;;;;;;12.30;99.90;;;;;;5036846;28;20041;-72
2023/07/04 04:26:22;;;;;;;5.82;1.33;;;12.40;99.90;;;;;;5035989;28;19924;-73
2023/07/04 04:28:48;;;;;;;3.70;1.42;;;12.50;99.90;;;;;;5036013;28;20464;-72
2023/07/04 04:31:14;;;;;;;4.70;1.40;;;12.50;99.90;;;;;;5035960;28;20540;-73
2023/07/04 04:33:41;;;;;;;5.00;1.42;;;12.70;99.90;;;;;;5035921;28;20075;-72
2023/07/04 04:36:17;;;;;;;6.13;1.35;;;12.90;99.90;;;;;;5036606;28;20088;-73
2023/07/04 04:38:46;;;;;;;6.40;1.45;;;12.90;99.90;;;;;;5036788;28;20033;-73
2023/07/04 04:41:12;;;;;;;4.07;1.20;;;13.10;99.90;;;;;;5036479;28;20392;-73
2023/07/04 04:43:38;;;;;;;6.97;1.27;;;13.10;99.90;;;;;;5036239;28;20390;-73
2023/07/04 04:46:04;;;;;;;7.45;1.40;;;13.20;99.90;;;;;;5037267;28;20056;-74
2023/07/04 04:48:35;;;;;;;5.85;1.45;;;13.30;99.90;;;;;;5035892;28;20045;-74
2023/07/04 04:51:07;;;;;;;7.50;1.75;;;14.10;99.90;;;;;;5054297;28;20033;-71
2023/07/04 04:53:37;;;;;;;8.93;1.50;;;13.40;99.90;;;;;;5035519;28;20106;-73
2023/07/04 04:56:07;;;;;;;7.10;1.67;;;13.60;99.90;;;;;;5035341;28;20044;-74
2023/07/04 04:58:33;;;;;;;8.88;1.55;;;13.70;99.90;;;;;;5054010;28;20504;-75
2023/07/04 05:01:14;;;;;;;6.05;1.38;;;13.80;99.90;;;;;;5035551;28;20036;-73
2023/07/04 05:03:41;;;;;;;5.95;1.55;;;14.00;99.90;;;;;;5035426;28;20056;-73
2023/07/04 05:06:07;;;;;;;7.05;1.40;;;14.00;99.90;;;;;;5036438;28;20041;-74
2023/07/04 05:08:36;;;;;;;6.95;1.55;;;14.00;99.90;;;;;;5034846;28;20393;-74
2023/07/04 05:11:06;;;;;;;4.80;1.42;;;14.10;99.90;;;;;;5054901;28;20051;-73
2023/07/04 05:13:36;;;;;;;7.07;1.35;;;14.10;99.90;;;;;;5053051;28;20409;-73
2023/07/04 05:16:04;;;;;;;4.82;1.50;;;14.20;99.90;;;;;;5033483;28;20037;-73
2023/07/04 05:18:30;;;;;;;5.35;1.30;;;14.20;99.90;;;;;;5052553;28;20132;-73
2023/07/04 05:21:15;;;;;;;5.90;1.20;;;14.30;99.90;;;;;;5034452;28;20485;-73
2023/07/04 05:23:43;;;;;;;4.40;1.35;;;14.40;99.90;;;;;;5033911;28;20487;-73
2023/07/04 05:26:17;;;;;;;5.68;1.33;;;14.50;99.90;;;;;;5053510;28;20033;-73
2023/07/04 05:28:44;;;;;;;5.63;1.20;;;14.60;99.90;;;;;;5034974;28;20045;-73
2023/07/04 05:31:13;;;;;;;4.80;1.20;;;14.70;99.90;;;;;;5034468;28;20076;-73
2023/07/04 05:33:39;;;;;;;5.03;1.13;;;14.70;99.90;;;;;;5034959;28;20127;-74
2023/07/04 05:36:20;;;;;;;5.22;1.40;;;14.70;99.90;;;;;;5034907;28;20164;-74
2023/07/04 05:38:50;;;;;;;5.20;1.52;;;14.80;99.90;;;;;;5015100;28;20056;-74
2023/07/04 05:41:18;;;;;;;5.60;1.55;;;14.80;99.90;;;;;;5015652;28;20107;-74
2023/07/04 05:43:44;;;;;;;7.10;1.52;;;14.90;99.90;;;;;;5032578;28;20053;-73
2023/07/04 05:46:14;;;;;;;4.72;1.15;;;14.90;99.90;;;;;;5015505;28;20060;-74
2023/07/04 05:48:41;;;;;;;4.75;1.55;;;14.90;99.90;;;;;;5015083;28;20405;-75
2023/07/04 05:51:10;;;;;;;4.05;1.10;;;15.00;99.90;;;;;;5042935;28;20112;-74
2023/07/04 05:53:38;;;;;;;5.50;1.23;;;15.10;99.90;;;;;;5052733;28;20244;-74
2023/07/04 05:56:21;;;;;;;4.22;1.10;;;15.10;99.90;;;;;;5053232;28;20072;-74
2023/07/04 05:58:50;;;;;;;3.58;1.17;;;15.10;99.90;;;;;;5052082;28;20041;-74
2023/07/04 06:01:32;;;;;;;6.43;1.40;;;15.20;99.90;;;;;;5053042;28;20171;-72
2023/07/04 06:03:59;;;;;;;4.07;1.20;;;15.30;99.90;;;;;;5053324;28;20041;-76
2023/07/04 06:06:33;;;;;;;4.32;1.33;;;15.30;99.90;;;;;;5034378;28;20385;-73
2023/07/04 06:09:14;;;;;;;6.25;1.25;;;15.30;99.90;;;;;;5034282;28;20044;-74
2023/07/04 06:11:45;;;;;;;7.45;1.50;;;15.30;99.90;;;;;;5052218;28;20053;-77
2023/07/04 06:14:24;;;;;;;7.22;1.40;;;15.40;99.90;;;;;;5034754;28;20045;-77
2023/07/04 06:16:55;;;;;;;4.68;1.13;;;15.40;99.90;;;;;;5034921;28;20127;-74
2023/07/04 06:19:21;;;;;;;3.25;1.17;;;15.50;99.90;;;;;;5031959;28;20412;-80
2023/07/04 06:21:47;;;;;;;6.95;1.45;;;15.60;99.90;;;;;;5014946;28;20120;-75
2023/07/04 06:24:15;;;;;;;5.65;1.10;;;15.70;99.90;;;;;;5015118;28;20624;-77
2023/07/04 06:26:41;;;;;;;8.65;1.40;;;15.60;99.90;;;;;;5014393;28;20053;-72
2023/07/04 06:29:06;;;;;;;5.20;1.20;;;15.70;99.90;;;;;;5049881;28;20045;-73
2023/07/04 06:31:32;;;;;;;8.45;1.30;;;15.70;99.90;;;;;;5052124;28;20056;-86
2023/07/04 06:34:00;;;;;;;4.65;1.20;;;15.90;99.90;;;;;;5052029;28;20037;-79
2023/07/04 06:36:30;;;;;;;7.20;1.58;;;15.90;99.90;;;;;;5051961;28;20057;-74
2023/07/04 06:39:00;;;;;;;4.90;1.48;;;15.90;99.90;;;;;;5033969;28;20060;-73
2023/07/04 06:41:25;;;;;;;6.82;1.40;;;16.00;99.90;;;;;;5050893;28;20101;-74
2023/07/04 06:43:54;;;;;;;4.43;1.10;;;16.10;99.90;;;;;;5051383;28;20486;-75
2023/07/04 06:46:21;;;;;;;6.22;1.30;;;16.10;99.90;;;;;;5051641;28;20128;-77
2023/07/04 06:48:48;;;;;;;9.07;1.40;;;16.10;99.90;;;;;;5032379;28;20048;-75
2023/07/04 06:51:16;;;;;;;6.72;1.73;;;16.20;99.90;;;;;;5034369;28;20192;-75
2023/07/04 06:53:43;;;;;;;7.18;1.30;;;16.30;99.90;;;;;;5033211;28;20111;-75
2023/07/04 06:56:09;;;;;;;8.60;1.60;;;16.40;99.90;;;;;;5034255;28;20044;-76
2023/07/04 06:58:40;;;;;;;6.00;1.60;;;16.50;99.90;;;;;;5035103;28;20400;-76
2023/07/04 07:01:10;;;;;;;6.15;1.42;;;16.60;99.90;;;;;;5032778;28;20044;-77
2023/07/04 07:03:36;;;;;;;4.28;1.10;;;16.70;99.90;;;;;;5050129;28;20182;-76
2023/07/04 07:06:13;;;;;;;3.45;1.10;;;16.70;99.90;;;;;;5050037;28;20123;-74
2023/07/04 07:08:40;;;;;;;5.57;1.30;;;16.70;99.90;;;;;;5032183;28;20479;-74
2023/07/04 07:11:17;;;;;;;3.85;1.25;;;16.80;99.90;;;;;;5033848;28;20041;-76
2023/07/04 07:13:51;;;;;;;3.85;1.10;;;16.80;99.90;;;;;;5032947;28;20053;-77
2023/07/04 07:16:20;;;;;;;4.57;1.20;;;16.90;99.90;;;;;;5051592;28;20041;-77
2023/07/04 07:18:46;;;;;;;4.47;1.65;;;16.90;99.90;;;;;;5052045;28;20124;-74
2023/07/04 07:21:15;;;;;;;6.70;1.55;;;17.00;99.90;;;;;;5052695;28;20049;-75
2023/07/04 07:23:41;;;;;;;5.97;1.67;;;17.00;99.90;;;;;;5034396;28;20092;-76
2023/07/04 07:26:09;;;;;;;5.18;1.30;;;17.10;99.90;;;;;;5052002;28;20049;-74
2023/07/04 07:28:39;;;;;;;7.25;1.30;;;17.20;99.90;;;;;;5052095;28;20056;-75
2023/07/04 07:31:18;;;;;;;5.05;1.13;;;17.20;99.90;;;;;;5033647;28;20044;-80
2023/07/04 07:33:45;;;;;;;4.18;1.30;;;17.40;99.90;;;;;;5034502;28;20053;-74
2023/07/04 07:36:28;;;;;;;5.30;1.30;;;17.50;99.90;;;;;;5051010;28;20060;-72
2023/07/04 07:38:55;;;;;;;3.67;1.40;;;17.70;99.90;;;;;;5032790;28;20052;-71
2023/07/04 07:41:27;;;;;;;6.15;1.35;;;17.90;99.90;;;;;;5036967;28;20135;-72
2023/07/04 07:43:53;;;;;;;6.10;1.50;;;18.10;99.90;;;;;;5054750;28;20049;-72
2023/07/04 07:46:19;;;;;;;5.22;1.30;;;18.20;99.90;;;;;;5054867;28;20059;-72
2023/07/04 07:48:45;;;;;;;4.65;1.52;;;18.40;99.90;;;;;;5055350;28;20048;-73
2023/07/04 07:51:12;;;;;;;7.53;1.98;;;18.60;99.90;;;;;;5054879;28;20150;-72
2023/07/04 07:53:43;;;;;;;5.45;1.52;;;18.60;99.90;;;;;;5055537;28;20053;-72
2023/07/04 07:56:11;;;;;;;5.75;1.60;;;18.70;99.90;;;;;;5037242;28;20382;-72
2023/07/04 07:58:38;;;;;;;5.80;1.70;;;19.00;99.90;;;;;;5035859;28;20045;-72
2023/07/04 08:01:18;;;;;;;7.18;1.77;;;19.20;99.90;;;;;;5036406;28;20041;-71
2023/07/04 08:03:45;;;;;;;10.07;1.85;;;19.30;99.90;;;;;;5036763;28;20055;-72
2023/07/04 08:06:39;;;;;;;6.00;1.65;;;19.70;99.90;;;;;;5036167;28;20048;-72
2023/07/04 08:09:10;;;;;;;10.35;1.90;;;20.00;99.90;;;;;;5054702;28;20051;-72
2023/07/04 08:11:37;;;;;;;7.07;1.60;;;20.10;99.90;;;;;;5036083;28;20060;-72
2023/07/04 08:14:03;;;;;;;5.93;1.83;;;19.80;99.40;;;;;;5054749;28;20127;-72
2023/07/04 08:16:53;;;;;;;7.93;1.70;;;19.40;99.90;;;;;;5036902;28;20108;-72
2023/07/04 08:19:23;;;;;;;7.68;1.77;;;18.90;99.90;;;;;;5035803;28;20057;-72
2023/07/04 08:21:53;;;;;;;8.48;2.10;;;18.30;99.90;;;;;;5054648;28;20037;-72
2023/07/04 08:24:19;;;;;;;10.15;2.03;;;18.10;99.90;;;;;;5036927;28;20131;-72
2023/07/04 08:26:47;;;;;;;8.38;2.15;;;18.50;99.90;;;;;;5053139;28;20057;-72
2023/07/04 08:29:13;;;;;;;8.90;1.73;;;19.30;99.90;;;;;;5054652;28;20106;-71
2023/07/04 08:31:39;;;;;;;6.97;1.40;;;19.80;99.10;;;;;;5036251;28;20051;-72
2023/07/04 08:34:05;;;;;;;6.43;1.70;;;20.50;97.80;;;;;;5036103;28;20049;-73
2023/07/04 08:36:32;;;;;;;8.82;2.28;;;21.00;97.50;;;;;;5036083;28;20045;-73
2023/07/04 08:39:00;;;;;;;4.88;1.30;;;21.60;97.00;;;;;;5036158;28;20049;-73
2023/07/04 08:41:59;;;;;;;5.72;1.73;;;21.20;95.60;;;;;;5035561;28;20076;-72
2023/07/04 08:44:41;;;;;;;7.28;1.73;;;21.40;96.20;;;;;;5054270;28;20440;-72
2023/07/04 08:47:10;;;;;;;7.85;1.45;;;21.80;95.00;;;;;;5054274;28;20052;-73
2023/07/04 08:49:48;;;;;;;6.68;1.35;;;21.80;94.90;;;;;;5054220;28;20045;-72
2023/07/04 08:52:23;;;;;;;5.47;1.40;;;22.20;94.40;;;;;;5054647;28;20049;-72
2023/07/04 08:54:53;;;;;;;6.05;1.30;;;22.40;94.30;;;;;;5035377;28;20567;-72
2023/07/04 08:57:26;;;;;;;7.22;1.75;;;22.60;93.70;;;;;;5051992;28;20131;-73
2023/07/04 09:00:05;;;;;;;6.53;1.75;;;22.40;93.90;;;;;;5052227;28;20061;-72
2023/07/04 09:02:46;;;;;;;5.50;1.52;;;22.50;94.50;;;;;;5051144;28;20095;-73
2023/07/04 09:05:29;;;;;;;6.05;1.42;;;22.10;94.70;;;;;;5053968;28;20126;-72
2023/07/04 09:08:13;;;;;;;6.75;1.42;;;21.50;95.90;;;;;;5034703;28;20044;-72
2023/07/04 09:10:46;;;;;;;4.60;1.23;;;21.00;96.30;;;;;;5053995;28;20489;-72
2023/07/04 09:13:36;;;;;;;5.00;1.45;;;21.30;95.20;;;;;;5036184;28;20033;-72
2023/07/04 09:16:06;;;;;;;6.80;1.10;;;20.70;94.80;;;;;;5034644;28;20033;-73
2023/07/04 09:18:41;;;;;;;6.30;1.73;;;20.30;95.60;;;;;;5053705;28;20131;-73
2023/07/04 09:21:21;;;;;;;6.82;1.42;;;19.90;96.50;;;;;;5035870;28;20048;-73
2023/07/04 09:24:01;;;;;;;9.98;1.63;;;20.10;96.70;;;;;;5052446;28;20060;-72
2023/07/04 09:26:46;;;;;;;7.80;1.70;;;21.00;96.10;;;;;;5054729;28;20045;-76
2023/07/04 09:29:16;;;;;;;4.60;1.20;;;21.30;95.80;;;;;;5035949;28;20045;-74
2023/07/04 09:31:45;;;;;;;7.90;2.30;;;20.90;94.90;;;;;;5036174;28;20098;-73
2023/07/04 09:34:22;;;;;;;6.68;1.50;;;20.60;96.10;;;;;;5052410;28;20084;-73
2023/07/04 09:36:53;;;;;;;6.15;1.50;;;20.10;96.70;;;;;;5031801;28;20053;-73
2023/07/04 09:39:19;;;;;;;6.50;1.55;;;19.80;97.70;;;;;;5053169;28;20080;-71
2023/07/04 09:41:56;;;;;;;6.32;1.70;;;20.10;97.80;;;;;;5035081;28;20040;-72
2023/07/04 09:44:36;;;;;;;4.63;1.17;;;20.90;96.60;;;;;;5052210;28;20045;-73
2023/07/04 09:47:02;;;;;;;8.38;1.85;;;21.30;96.00;;;;;;5052359;28;20036;-73
2023/07/04 09:49:33;;;;;;;6.30;1.45;;;21.80;94.60;;;;;;5051966;28;20041;-74
2023/07/04 09:52:01;;;;;;;5.38;1.48;;;22.20;94.30;;;;;;5035227;28;20049;-75
2023/07/04 09:54:28;;;;;;;5.32;1.40;;;22.40;94.00;;;;;;5035081;28;20041;-80
2023/07/04 09:56:54;;;;;;;6.65;1.50;;;22.50;93.50;;;;;;5052784;28;20045;-76
2023/07/04 09:59:27;;;;;;;7.50;1.42;;;22.70;94.30;;;;;;5035113;28;20059;-75
2023/07/04 10:01:58;;;;;;;8.07;1.60;;;22.90;94.00;;;;;;5034203;28;20095;-75
2023/07/04 10:04:37;;;;;;;5.63;1.45;;;22.20;93.70;;;;;;5052319;28;20045;-75
2023/07/04 10:07:15;;;;;;;9.30;1.63;;;21.90;94.60;;;;;;5052422;28;20080;-76
2023/07/04 10:09:52;;;;;;;5.07;1.48;;;21.90;93.90;;;;;;5034538;28;20047;-75
2023/07/04 10:12:19;;;;;;;5.05;1.40;;;21.90;94.20;;;;;;5050574;28;20049;-75
2023/07/04 10:14:48;;;;;;;7.47;1.80;;;21.60;93.80;;;;;;5033965;28;20045;-75
2023/07/04 10:17:26;;;;;;;6.28;1.45;;;21.60;94.50;;;;;;5051997;28;20048;-74
2023/07/04 10:19:56;;;;;;;4.40;1.58;;;21.60;94.20;;;;;;5033540;28;20052;-75
2023/07/04 10:22:55;;;;;;;9.25;1.88;;;21.40;93.60;;;;;;5053367;28;20040;-75
2023/07/04 10:25:22;;;;;;;8.75;1.75;;;21.60;94.80;;;;;;5050847;28;20497;-74
2023/07/04 10:27:54;;;;;;;6.80;1.50;;;22.20;94.50;;;;;;5037936;28;20099;-78
2023/07/04 10:30:24;;;;;;;9.40;1.40;;;22.10;93.90;;;;;;5052233;28;20049;-78
2023/07/04 10:33:03;;;;;;;8.77;1.58;;;21.80;94.50;;;;;;5033060;28;20056;-77
2023/07/04 10:35:33;;;;;;;7.30;1.80;;;21.40;95.30;;;;;;5034583;28;20056;-74
2023/07/04 10:38:07;;;;;;;6.55;1.50;;;20.90;95.60;;;;;;5052754;28;20044;-77
2023/07/04 10:40:38;;;;;;;5.85;1.88;;;20.60;96.00;;;;;;5033962;28;20366;-76
2023/07/04 10:43:35;;;;;;;5.82;1.45;;;20.40;96.20;;;;;;5052616;28;20037;-74
2023/07/04 10:46:15;;;;;;;4.47;1.48;;;19.80;97.20;;;;;;5052066;28;20425;-75
2023/07/04 10:48:51;;;;;;;6.65;1.58;;;19.90;96.00;;;;;;5035282;28;20056;-76
2023/07/04 10:51:26;;;;;;;5.43;1.60;;;19.90;96.10;;;;;;5052807;28;20072;-76
2023/07/04 10:53:52;;;;;;;6.85;1.70;;;20.00;96.70;;;;;;5034454;28;20456;-73
2023/07/04 10:56:32;;;;;;;5.97;1.55;;;20.00;95.80;;;;;;5052693;28;20041;-73
2023/07/04 10:59:06;;;;;;;4.53;1.35;;;20.60;95.90;;;;;;5052709;28;20085;-75
2023/07/04 11:01:47;;;;;;;5.47;1.60;;;21.20;95.40;;;;;;5033780;28;20134;-75
2023/07/04 11:04:33;;;;;;;5.43;1.65;;;21.40;94.90;;;;;;5034836;28;20481;-73
2023/07/04 11:07:17;;;;;;;6.95;1.55;;;21.20;95.20;;;;;;5033455;28;20512;-74
2023/07/04 11:09:43;;;;;;;6.07;1.38;;;21.00;95.50;;;;;;5034287;28;20049;-83
2023/07/04 11:12:15;;;;;;;5.95;1.42;;;21.20;95.10;;;;;;5035109;28;20477;-73
2023/07/04 11:14:44;;;;;;;6.32;1.88;;;20.70;94.50;;;;;;5036498;28;20044;-73
2023/07/04 11:17:18;;;;;;;6.03;1.40;;;20.80;94.90;;;;;;5038195;28;20416;-75
2023/07/04 11:19:55;;;;;;;5.55;1.30;;;21.30;95.00;;;;;;5055979;28;20051;-74
2023/07/04 11:22:53;;;;;;;8.88;1.65;;;21.70;93.70;;;;;;5037642;28;20378;-75
2023/07/04 11:25:41;;;;;;;5.72;1.40;;;21.70;93.10;;;;;;5037944;28;20049;-76
2023/07/04 11:28:43;;;;;;;4.90;1.40;;;21.40;93.30;;;;;;5037038;28;20041;-72
2023/07/04 11:31:18;;;;;;;9.30;1.88;;;21.90;94.00;;;;;;5027665;28;20395;-74
2023/07/04 11:33:53;;;;;;;6.40;1.38;;;21.50;93.90;;;;;;5037238;28;20041;-76
2023/07/04 11:36:30;;;;;;;5.13;1.30;;;21.60;94.00;;;;;;5036827;28;20052;-75
2023/07/04 11:39:03;;;;;;;8.27;1.50;;;21.50;94.20;;;;;;5055054;28;20092;-75
2023/07/04 11:41:40;;;;;;;6.57;1.40;;;21.30;93.50;;;;;;5037815;28;20478;-75
2023/07/04 11:44:32;;;;;;;5.70;1.63;;;21.30;94.20;;;;;;5055089;28;20128;-73
2023/07/04 11:47:09;;;;;;;7.85;1.50;;;21.00;94.60;;;;;;5037826;28;20041;-76
2023/07/04 11:49:36;;;;;;;6.63;1.42;;;21.20;95.40;;;;;;5036568;28;20377;-75
2023/07/04 11:52:19;;;;;;;7.00;1.92;;;21.60;94.90;;;;;;5037501;28;20049;-74
2023/07/04 11:54:54;;;;;;;8.57;1.58;;;21.80;94.50;;;;;;5036656;28;20465;-73
2023/07/04 11:57:21;;;;;;;5.32;1.52;;;22.00;94.80;;;;;;5054442;28;20091;-74
2023/07/04 11:59:50;;;;;;;5.78;1.50;;;22.10;94.50;;;;;;5036893;28;20053;-75
2023/07/04 12:02:26;;;;;;;4.30;1.30;;;22.40;94.20;;;;;;5037025;28;20040;-74
2023/07/04 12:04:53;;;;;;;5.20;1.60;;;22.60;93.20;;;;;;5053847;28;20102;-74
2023/07/04 12:07:46;;;;;;;6.78;1.83;;;22.40;92.70;;;;;;5036924;28;20045;-74
2023/07/04 12:10:21;;;;;;;5.82;1.52;;;22.60;92.90;;;;;;5036440;28;20045;-74
2023/07/04 12:13:00;;;;;;;6.50;1.67;;;22.50;93.50;;;;;;5054593;28;20033;-74
2023/07/04 12:15:29;;;;;;;6.70;1.70;;;22.50;92.50;;;;;;5037009;28;20056;-75
2023/07/04 12:17:58;;;;;;;7.47;1.40;;;22.40;92.50;;;;;;5035665;28;20044;-74
2023/07/04 12:20:27;;;;;;;11.40;1.77;;;22.20;92.40;;;;;;5036869;28;20045;-74
2023/07/04 12:22:56;;;;;;;7.82;1.42;;;22.10;92.90;;;;;;5054495;28;20033;-77
2023/07/04 12:25:41;;;;;;;6.53;1.90;;;22.10;93.30;;;;;;5053195;28;20484;-77
2023/07/04 12:28:09;;;;;;;5.22;1.63;;;22.20;93.20;;;;;;5036410;28;20497;-76
2023/07/04 12:30:39;;;;;;;5.93;1.42;;;22.20;93.90;;;;;;5036526;28;20068;-77
2023/07/04 12:33:05;;;;;;;3.78;1.10;;;22.50;93.70;;;;;;5053976;28;20063;-76
2023/07/04 12:35:37;;;;;;;8.23;1.90;;;22.60;92.70;;;;;;5053738;28;20144;-76
2023/07/04 12:38:05;;;;;;;7.32;1.52;;;22.60;92.50;;;;;;5035764;28;20057;-73
2023/07/04 12:40:31;;;;;;;4.57;1.50;;;22.40;93.00;;;;;;5053231;28;20044;-76
2023/07/04 12:43:00;;;;;;;6.00;1.73;;;22.20;92.70;;;;;;5036259;28;20073;-76
2023/07/04 12:45:27;;;;;;;5.57;1.40;;;22.10;93.10;;;;;;5052873;28;20060;-77
2023/07/04 12:48:03;;;;;;;5.00;1.45;;;22.20;93.10;;;;;;5034847;28;20473;-77
2023/07/04 12:50:30;;;;;;;;;;;22.10;93.10;;;;;;5054338;28;20048;-73
2023/07/04 12:52:56;;;;;;;5.80;1.58;;;22.00;93.70;;;;;;5053017;28;19974;-73
2023/07/04 12:55:30;;;;;;;8.07;1.60;;;21.50;92.60;;;;;;5035299;28;20048;-74
2023/07/04 12:58:00;;;;;;;4.50;1.38;;;21.80;94.10;;;;;;5035599;28;20401;-74
2023/07/04 13:00:40;;;;;;;5.63;1.30;;;21.70;93.30;;;;;;5053240;28;20397;-74
2023/07/04 13:03:16;;;;;;;8.90;1.40;;;21.70;93.90;;;;;;5035884;28;20040;-75
2023/07/04 13:05:47;;;;;;;6.22;1.75;;;21.60;93.30;;;;;;5053105;28;20377;-74
2023/07/04 13:08:19;;;;;;;4.10;1.40;;;21.80;93.50;;;;;;5034494;28;20049;-74
2023/07/04 13:10:54;;;;;;;6.82;1.30;;;21.60;92.80;;;;;;5053379;28;20045;-79